sensor_id;sensor_type;location;lat;lon;timestamp;temperature;humidity
13992;DHT22;7070;53.586;9.692;2023-04-03T00:01:44;-0.50;76.50
13992;DHT22;7070;53.586;9.692;2023-04-03T00:04:11;-0.50;76.70
13992;DHT22;7070;53.586;9.692;2023-04-03T00:06:38;-0.50;76.70
13992;DHT22;7070;53.586;9.692;2023-04-03T00:09:06;-0.50;76.80
13992;DHT22;7070;53.586;9.692;2023-04-03T00:11:33;-0.50;76.90
13992;DHT22;7070;53.586;9.692;2023-04-03T00:13:59;-0.50;77.00
13992;DHT22;7070;53.586;9.692;2023-04-03T00:16:26;-0.60;76.90
13992;DHT22;7070;53.586;9.692;2023-04-03T00:18:53;-0.60;77.00
13992;DHT22;7070;53.586;9.692;2023-04-03T00:21:20;-0.70;77.00
13992;DHT22;7070;53.586;9.692;2023-04-03T00:23:47;-0.60;77.30
13992;DHT22;7070;53.586;9.692;2023-04-03T00:26:15;-0.60;77.40
13992;DHT22;7070;53.586;9.692;2023-04-03T00:28:42;-0.60;77.50
13992;DHT22;7070;53.586;9.692;2023-04-03T00:31:09;-0.60;77.50
13992;DHT22;7070;53.586;9.692;2023-04-03T00:33:36;-0.70;77.40
13992;DHT22;7070;53.586;9.692;2023-04-03T00:36:07;-0.70;77.60
13992;DHT22;7070;53.586;9.692;2023-04-03T00:38:34;-0.60;77.70
13992;DHT22;7070;53.586;9.692;2023-04-03T00:41:01;-0.60;77.90
13992;DHT22;7070;53.586;9.692;2023-04-03T00:43:30;-0.70;77.80
13992;DHT22;7070;53.586;9.692;2023-04-03T00:45:57;-0.60;77.90
13992;DHT22;7070;53.586;9.692;2023-04-03T00:48:27;-0.70;77.80
13992;DHT22;7070;53.586;9.692;2023-04-03T00:50:55;-0.70;77.80
13992;DHT22;7070;53.586;9.692;2023-04-03T00:53:25;-0.70;78.00
13992;DHT22;7070;53.586;9.692;2023-04-03T00:55:53;-0.60;78.00
13992;DHT22;7070;53.586;9.692;2023-04-03T00:58:27;-0.70;78.80
13992;DHT22;7070;53.586;9.692;2023-04-03T01:00:58;-0.70;78.00
13992;DHT22;7070;53.586;9.692;2023-04-03T01:03:25;-0.80;78.00
13992;DHT22;7070;53.586;9.692;2023-04-03T01:05:52;-0.70;78.20
13992;DHT22;7070;53.586;9.692;2023-04-03T01:08:19;-0.70;78.30
13992;DHT22;7070;53.586;9.692;2023-04-03T01:10:46;-0.70;78.30
13992;DHT22;7070;53.586;9.692;2023-04-03T01:13:22;-0.80;78.20
13992;DHT22;7070;53.586;9.692;2023-04-03T01:15:50;-0.70;78.40
13992;DHT22;7070;53.586;9.692;2023-04-03T01:18:18;-0.80;78.40
13992;DHT22;7070;53.586;9.692;2023-04-03T01:24:04;-0.80;78.60
13992;DHT22;7070;53.586;9.692;2023-04-03T01:26:34;-0.80;78.50
13992;DHT22;7070;53.586;9.692;2023-04-03T01:29:01;-0.80;78.60
13992;DHT22;7070;53.586;9.692;2023-04-03T01:31:40;-0.80;78.70
13992;DHT22;7070;53.586;9.692;2023-04-03T01:34:07;-0.90;78.60
13992;DHT22;7070;53.586;9.692;2023-04-03T01:36:33;-0.80;78.80
13992;DHT22;7070;53.586;9.692;2023-04-03T01:39:00;-0.80;78.80
13992;DHT22;7070;53.586;9.692;2023-04-03T01:41:28;-0.90;78.80
13992;DHT22;7070;53.586;9.692;2023-04-03T01:43:55;-0.80;78.90
13992;DHT22;7070;53.586;9.692;2023-04-03T01:46:22;-0.80;78.80
13992;DHT22;7070;53.586;9.692;2023-04-03T01:48:50;-0.90;78.80
13992;DHT22;7070;53.586;9.692;2023-04-03T01:51:17;-0.90;78.90
13992;DHT22;7070;53.586;9.692;2023-04-03T01:53:44;-0.90;78.90
13992;DHT22;7070;53.586;9.692;2023-04-03T01:56:11;-0.90;79.00
13992;DHT22;7070;53.586;9.692;2023-04-03T01:58:38;-0.90;79.10
13992;DHT22;7070;53.586;9.692;2023-04-03T02:01:05;-0.90;79.10
13992;DHT22;7070;53.586;9.692;2023-04-03T02:03:32;-0.90;79.10
13992;DHT22;7070;53.586;9.692;2023-04-03T02:06:09;-0.90;79.20
13992;DHT22;7070;53.586;9.692;2023-04-03T02:08:36;-0.90;79.30
13992;DHT22;7070;53.586;9.692;2023-04-03T02:11:03;-0.90;79.30
13992;DHT22;7070;53.586;9.692;2023-04-03T02:13:30;-3.30;77.20
13992;DHT22;7070;53.586;9.692;2023-04-03T02:15:57;-0.90;79.40
13992;DHT22;7070;53.586;9.692;2023-04-03T02:18:24;-0.90;79.40
13992;DHT22;7070;53.586;9.692;2023-04-03T02:20:51;-0.90;79.40
13992;DHT22;7070;53.586;9.692;2023-04-03T02:23:20;-0.90;79.50
13992;DHT22;7070;53.586;9.692;2023-04-03T02:25:47;-0.90;79.50
13992;DHT22;7070;53.586;9.692;2023-04-03T02:28:14;-0.80;79.60
13992;DHT22;7070;53.586;9.692;2023-04-03T02:30:41;-1.00;79.40
13992;DHT22;7070;53.586;9.692;2023-04-03T02:33:08;-0.90;79.60
13992;DHT22;7070;53.586;9.692;2023-04-03T02:35:35;-0.90;79.60
13992;DHT22;7070;53.586;9.692;2023-04-03T02:38:02;-0.90;79.60
13992;DHT22;7070;53.586;9.692;2023-04-03T02:40:30;-0.90;79.60
13992;DHT22;7070;53.586;9.692;2023-04-03T02:42:57;-0.90;79.70
13992;DHT22;7070;53.586;9.692;2023-04-03T02:45:24;-0.90;79.60
13992;DHT22;7070;53.586;9.692;2023-04-03T02:47:51;-0.90;79.60
13992;DHT22;7070;53.586;9.692;2023-04-03T02:50:18;-1.00;79.60
13992;DHT22;7070;53.586;9.692;2023-04-03T02:52:45;-1.00;79.60
13992;DHT22;7070;53.586;9.692;2023-04-03T02:55:14;-0.90;79.70
13992;DHT22;7070;53.586;9.692;2023-04-03T02:57:42;-1.00;79.60
13992;DHT22;7070;53.586;9.692;2023-04-03T03:00:10;-1.00;79.60
13992;DHT22;7070;53.586;9.692;2023-04-03T03:02:37;-1.00;79.60
13992;DHT22;7070;53.586;9.692;2023-04-03T03:05:04;-1.00;79.70
13992;DHT22;7070;53.586;9.692;2023-04-03T03:07:32;-1.10;79.60
13992;DHT22;7070;53.586;9.692;2023-04-03T03:09:58;-1.10;79.60
13992;DHT22;7070;53.586;9.692;2023-04-03T03:12:25;-1.00;79.70
13992;DHT22;7070;53.586;9.692;2023-04-03T03:14:54;-1.10;79.70
13992;DHT22;7070;53.586;9.692;2023-04-03T03:17:20;-1.10;79.70
13992;DHT22;7070;53.586;9.692;2023-04-03T03:19:47;-1.10;79.70
13992;DHT22;7070;53.586;9.692;2023-04-03T03:22:14;-1.10;79.80
13992;DHT22;7070;53.586;9.692;2023-04-03T03:24:41;-1.20;79.70
13992;DHT22;7070;53.586;9.692;2023-04-03T03:27:08;-1.20;79.80
13992;DHT22;7070;53.586;9.692;2023-04-03T03:29:35;-1.20;79.90
13992;DHT22;7070;53.586;9.692;2023-04-03T03:32:03;-1.10;80.00
13992;DHT22;7070;53.586;9.692;2023-04-03T03:34:30;-1.20;79.80
13992;DHT22;7070;53.586;9.692;2023-04-03T03:36:57;-1.20;79.80
13992;DHT22;7070;53.586;9.692;2023-04-03T03:39:24;-1.10;80.00
13992;DHT22;7070;53.586;9.692;2023-04-03T03:41:51;-1.10;80.80
13992;DHT22;7070;53.586;9.692;2023-04-03T03:44:18;-1.20;80.00
13992;DHT22;7070;53.586;9.692;2023-04-03T03:46:45;-1.20;80.00
13992;DHT22;7070;53.586;9.692;2023-04-03T03:49:13;-1.20;80.00
13992;DHT22;7070;53.586;9.692;2023-04-03T03:51:40;-1.20;80.00
13992;DHT22;7070;53.586;9.692;2023-04-03T03:54:07;-1.20;80.00
13992;DHT22;7070;53.586;9.692;2023-04-03T03:56:34;-1.30;79.90
13992;DHT22;7070;53.586;9.692;2023-04-03T03:59:01;-1.30;80.00
13992;DHT22;7070;53.586;9.692;2023-04-03T04:01:28;-1.20;80.00
13992;DHT22;7070;53.586;9.692;2023-04-03T04:03:55;-1.30;79.90
13992;DHT22;7070;53.586;9.692;2023-04-03T04:06:23;-1.30;80.00
13992;DHT22;7070;53.586;9.692;2023-04-03T04:08:50;-1.30;80.10
13992;DHT22;7070;53.586;9.692;2023-04-03T04:11:17;-1.30;80.10
13992;DHT22;7070;53.586;9.692;2023-04-03T04:13:44;-1.30;80.10
13992;DHT22;7070;53.586;9.692;2023-04-03T04:16:11;-1.30;80.20
13992;DHT22;7070;53.586;9.692;2023-04-03T04:18:38;-1.30;80.90
13992;DHT22;7070;53.586;9.692;2023-04-03T04:21:05;-1.40;80.20
13992;DHT22;7070;53.586;9.692;2023-04-03T04:23:33;-1.40;80.20
13992;DHT22;7070;53.586;9.692;2023-04-03T04:26:00;-1.40;80.30
13992;DHT22;7070;53.586;9.692;2023-04-03T04:28:27;-1.30;80.40
13992;DHT22;7070;53.586;9.692;2023-04-03T04:30:54;-1.40;80.30
13992;DHT22;7070;53.586;9.692;2023-04-03T04:33:20;-1.40;80.30
13992;DHT22;7070;53.586;9.692;2023-04-03T04:35:47;-1.30;80.40
13992;DHT22;7070;53.586;9.692;2023-04-03T04:38:14;-1.30;80.50
13992;DHT22;7070;53.586;9.692;2023-04-03T04:40:43;-1.40;81.20
13992;DHT22;7070;53.586;9.692;2023-04-03T04:43:10;-1.40;80.50
13992;DHT22;7070;53.586;9.692;2023-04-03T04:45:39;-1.30;80.70
13992;DHT22;7070;53.586;9.692;2023-04-03T04:48:06;-1.30;80.70
13992;DHT22;7070;53.586;9.692;2023-04-03T04:50:33;-1.30;80.70
13992;DHT22;7070;53.586;9.692;2023-04-03T04:53:00;-1.30;80.70
13992;DHT22;7070;53.586;9.692;2023-04-03T04:55:27;-1.40;80.60
13992;DHT22;7070;53.586;9.692;2023-04-03T04:57:55;-1.30;80.70
13992;DHT22;7070;53.586;9.692;2023-04-03T05:00:22;-1.30;80.70
13992;DHT22;7070;53.586;9.692;2023-04-03T05:02:49;-1.30;80.60
13992;DHT22;7070;53.586;9.692;2023-04-03T05:05:16;-1.30;80.70
13992;DHT22;7070;53.586;9.692;2023-04-03T05:07:43;-1.30;80.70
13992;DHT22;7070;53.586;9.692;2023-04-03T05:10:10;-1.30;80.60
13992;DHT22;7070;53.586;9.692;2023-04-03T05:12:37;-1.40;80.60
13992;DHT22;7070;53.586;9.692;2023-04-03T05:15:07;-1.30;80.80
13992;DHT22;7070;53.586;9.692;2023-04-03T05:17:34;-1.30;80.80
13992;DHT22;7070;53.586;9.692;2023-04-03T05:20:01;-1.30;80.90
13992;DHT22;7070;53.586;9.692;2023-04-03T05:22:29;-1.30;80.90
13992;DHT22;7070;53.586;9.692;2023-04-03T05:24:56;-1.30;80.90
13992;DHT22;7070;53.586;9.692;2023-04-03T05:27:23;-1.30;80.80
13992;DHT22;7070;53.586;9.692;2023-04-03T05:29:50;-1.20;81.10
13992;DHT22;7070;53.586;9.692;2023-04-03T05:32:18;-1.20;81.10
13992;DHT22;7070;53.586;9.692;2023-04-03T05:34:45;-1.10;81.30
13992;DHT22;7070;53.586;9.692;2023-04-03T05:37:12;-1.10;81.50
13992;DHT22;7070;53.586;9.692;2023-04-03T05:39:39;-1.10;81.60
13992;DHT22;7070;53.586;9.692;2023-04-03T05:42:06;-1.00;81.70
13992;DHT22;7070;53.586;9.692;2023-04-03T05:44:33;-0.80;82.00
13992;DHT22;7070;53.586;9.692;2023-04-03T05:47:00;-0.70;82.20
13992;DHT22;7070;53.586;9.692;2023-04-03T05:49:29;-0.60;82.40
13992;DHT22;7070;53.586;9.692;2023-04-03T05:51:55;-0.50;82.50
13992;DHT22;7070;53.586;9.692;2023-04-03T05:54:24;-0.40;82.60
13992;DHT22;7070;53.586;9.692;2023-04-03T05:56:52;-0.30;82.80
13992;DHT22;7070;53.586;9.692;2023-04-03T05:59:19;-0.10;83.00
13992;DHT22;7070;53.586;9.692;2023-04-03T06:01:47;0.00;83.00
13992;DHT22;7070;53.586;9.692;2023-04-03T06:04:14;0.10;83.00
13992;DHT22;7070;53.586;9.692;2023-04-03T06:06:47;0.20;83.10
13992;DHT22;7070;53.586;9.692;2023-04-03T06:09:15;0.30;83.20
13992;DHT22;7070;53.586;9.692;2023-04-03T06:11:42;0.50;83.30
13992;DHT22;7070;53.586;9.692;2023-04-03T06:14:09;0.60;83.30
13992;DHT22;7070;53.586;9.692;2023-04-03T06:16:36;0.70;83.40
13992;DHT22;7070;53.586;9.692;2023-04-03T06:19:04;0.80;83.40
13992;DHT22;7070;53.586;9.692;2023-04-03T06:21:31;0.90;83.40
13992;DHT22;7070;53.586;9.692;2023-04-03T06:23:59;1.10;83.50
13992;DHT22;7070;53.586;9.692;2023-04-03T06:26:27;1.10;83.40
13992;DHT22;7070;53.586;9.692;2023-04-03T06:28:54;1.30;83.60
13992;DHT22;7070;53.586;9.692;2023-04-03T06:31:21;1.40;83.60
13992;DHT22;7070;53.586;9.692;2023-04-03T06:33:48;1.40;83.40
13992;DHT22;7070;53.586;9.692;2023-04-03T06:36:18;1.50;83.40
13992;DHT22;7070;53.586;9.692;2023-04-03T06:38:46;1.60;83.40
13992;DHT22;7070;53.586;9.692;2023-04-03T06:41:15;1.60;83.20
13992;DHT22;7070;53.586;9.692;2023-04-03T06:43:43;1.80;83.30
13992;DHT22;7070;53.586;9.692;2023-04-03T06:46:13;1.80;83.00
13992;DHT22;7070;53.586;9.692;2023-04-03T06:48:41;1.80;82.80
13992;DHT22;7070;53.586;9.692;2023-04-03T06:51:14;1.90;82.80
13992;DHT22;7070;53.586;9.692;2023-04-03T06:53:41;1.90;82.70
13992;DHT22;7070;53.586;9.692;2023-04-03T06:56:08;2.00;82.70
13992;DHT22;7070;53.586;9.692;2023-04-03T06:58:36;2.10;82.70
13992;DHT22;7070;53.586;9.692;2023-04-03T07:01:03;2.10;82.70
13992;DHT22;7070;53.586;9.692;2023-04-03T07:03:30;2.10;82.60
13992;DHT22;7070;53.586;9.692;2023-04-03T07:05:57;2.20;82.80
13992;DHT22;7070;53.586;9.692;2023-04-03T07:08:24;2.30;82.70
13992;DHT22;7070;53.586;9.692;2023-04-03T07:10:51;2.30;82.60
13992;DHT22;7070;53.586;9.692;2023-04-03T07:13:18;2.40;82.60
13992;DHT22;7070;53.586;9.692;2023-04-03T07:15:46;2.60;82.70
13992;DHT22;7070;53.586;9.692;2023-04-03T07:18:13;2.60;82.60
13992;DHT22;7070;53.586;9.692;2023-04-03T07:20:40;2.70;82.60
13992;DHT22;7070;53.586;9.692;2023-04-03T07:23:07;2.70;82.50
13992;DHT22;7070;53.586;9.692;2023-04-03T07:25:34;2.80;82.50
13992;DHT22;7070;53.586;9.692;2023-04-03T07:28:01;3.00;82.60
13992;DHT22;7070;53.586;9.692;2023-04-03T07:30:29;3.00;83.20
13992;DHT22;7070;53.586;9.692;2023-04-03T07:32:57;3.10;82.40
13992;DHT22;7070;53.586;9.692;2023-04-03T07:35:24;3.20;82.30
13992;DHT22;7070;53.586;9.692;2023-04-03T07:37:51;3.40;82.30
13992;DHT22;7070;53.586;9.692;2023-04-03T07:40:18;3.40;82.10
13992;DHT22;7070;53.586;9.692;2023-04-03T07:42:45;3.50;82.00
13992;DHT22;7070;53.586;9.692;2023-04-03T07:45:12;3.70;81.80
13992;DHT22;7070;53.586;9.692;2023-04-03T07:47:39;3.80;81.60
13992;DHT22;7070;53.586;9.692;2023-04-03T07:50:08;3.90;81.50
13992;DHT22;7070;53.586;9.692;2023-04-03T07:52:35;3.90;81.20
13992;DHT22;7070;53.586;9.692;2023-04-03T07:55:02;4.10;81.10
13992;DHT22;7070;53.586;9.692;2023-04-03T07:57:29;4.10;80.70
13992;DHT22;7070;53.586;9.692;2023-04-03T07:59:56;4.20;80.50
13992;DHT22;7070;53.586;9.692;2023-04-03T08:02:22;4.30;80.40
13992;DHT22;7070;53.586;9.692;2023-04-03T08:04:49;4.40;80.00
13992;DHT22;7070;53.586;9.692;2023-04-03T08:07:17;4.60;79.90
13992;DHT22;7070;53.586;9.692;2023-04-03T08:09:44;4.60;79.60
13992;DHT22;7070;53.586;9.692;2023-04-03T08:12:11;4.70;79.40
13992;DHT22;7070;53.586;9.692;2023-04-03T08:14:39;4.80;79.20
13992;DHT22;7070;53.586;9.692;2023-04-03T08:17:07;5.00;79.00
13992;DHT22;7070;53.586;9.692;2023-04-03T08:19:37;5.00;78.90
13992;DHT22;7070;53.586;9.692;2023-04-03T08:22:04;5.20;78.80
13992;DHT22;7070;53.586;9.692;2023-04-03T08:24:33;5.20;78.50
13992;DHT22;7070;53.586;9.692;2023-04-03T08:27:00;5.20;78.20
13992;DHT22;7070;53.586;9.692;2023-04-03T08:29:27;5.40;78.00
13992;DHT22;7070;53.586;9.692;2023-04-03T08:31:54;5.50;77.90
13992;DHT22;7070;53.586;9.692;2023-04-03T08:34:21;5.50;77.50
13992;DHT22;7070;53.586;9.692;2023-04-03T08:36:48;5.60;77.20
13992;DHT22;7070;53.586;9.692;2023-04-03T08:39:15;5.70;76.90
13992;DHT22;7070;53.586;9.692;2023-04-03T08:41:44;5.70;76.60
13992;DHT22;7070;53.586;9.692;2023-04-03T08:44:22;5.80;76.70
13992;DHT22;7070;53.586;9.692;2023-04-03T08:47:04;5.80;76.40
13992;DHT22;7070;53.586;9.692;2023-04-03T08:49:34;6.00;76.00
13992;DHT22;7070;53.586;9.692;2023-04-03T08:52:05;6.00;75.50
13992;DHT22;7070;53.586;9.692;2023-04-03T08:54:44;6.00;75.30
13992;DHT22;7070;53.586;9.692;2023-04-03T08:57:16;6.10;75.10
13992;DHT22;7070;53.586;9.692;2023-04-03T08:59:44;6.20;75.00
13992;DHT22;7070;53.586;9.692;2023-04-03T09:02:24;6.30;75.00
13992;DHT22;7070;53.586;9.692;2023-04-03T09:04:53;6.30;74.80
13992;DHT22;7070;53.586;9.692;2023-04-03T09:07:23;6.40;74.00
13992;DHT22;7070;53.586;9.692;2023-04-03T09:09:52;6.50;73.90
13992;DHT22;7070;53.586;9.692;2023-04-03T09:12:24;6.50;73.40
13992;DHT22;7070;53.586;9.692;2023-04-03T09:14:57;6.60;73.40
13992;DHT22;7070;53.586;9.692;2023-04-03T09:17:38;6.60;73.50
13992;DHT22;7070;53.586;9.692;2023-04-03T09:20:17;6.60;72.20
13992;DHT22;7070;53.586;9.692;2023-04-03T09:22:46;6.70;72.10
13992;DHT22;7070;53.586;9.692;2023-04-03T09:25:15;6.80;72.10
13992;DHT22;7070;53.586;9.692;2023-04-03T09:27:44;6.80;71.90
13992;DHT22;7070;53.586;9.692;2023-04-03T09:30:13;6.90;71.80
13992;DHT22;7070;53.586;9.692;2023-04-03T09:32:43;6.90;71.90
13992;DHT22;7070;53.586;9.692;2023-04-03T09:35:20;7.10;71.90
13992;DHT22;7070;53.586;9.692;2023-04-03T09:37:48;7.10;71.90
13992;DHT22;7070;53.586;9.692;2023-04-03T09:40:32;7.20;71.60
13992;DHT22;7070;53.586;9.692;2023-04-03T09:43:28;7.40;72.20
13992;DHT22;7070;53.586;9.692;2023-04-03T09:48:50;7.60;72.30
13992;DHT22;7070;53.586;9.692;2023-04-03T09:51:17;7.70;71.80
13992;DHT22;7070;53.586;9.692;2023-04-03T09:53:44;7.80;71.00
13992;DHT22;7070;53.586;9.692;2023-04-03T09:56:21;7.90;71.00
13992;DHT22;7070;53.586;9.692;2023-04-03T09:58:51;7.90;70.80
13992;DHT22;7070;53.586;9.692;2023-04-03T10:01:26;8.00;70.60
13992;DHT22;7070;53.586;9.692;2023-04-03T10:04:08;8.10;70.70
13992;DHT22;7070;53.586;9.692;2023-04-03T10:06:38;8.10;70.20
13992;DHT22;7070;53.586;9.692;2023-04-03T10:09:17;8.20;69.70
13992;DHT22;7070;53.586;9.692;2023-04-03T10:11:58;8.40;70.80
13992;DHT22;7070;53.586;9.692;2023-04-03T10:14:28;8.50;69.40
13992;DHT22;7070;53.586;9.692;2023-04-03T10:17:01;8.60;69.00
13992;DHT22;7070;53.586;9.692;2023-04-03T10:19:36;8.60;69.10
13992;DHT22;7070;53.586;9.692;2023-04-03T10:22:16;8.70;67.70
13992;DHT22;7070;53.586;9.692;2023-04-03T10:24:52;8.70;67.50
13992;DHT22;7070;53.586;9.692;2023-04-03T10:27:27;8.60;67.00
13992;DHT22;7070;53.586;9.692;2023-04-03T10:30:08;8.50;67.00
13992;DHT22;7070;53.586;9.692;2023-04-03T10:32:54;8.50;67.40
13992;DHT22;7070;53.586;9.692;2023-04-03T10:35:32;8.40;67.60
13992;DHT22;7070;53.586;9.692;2023-04-03T10:38:06;8.50;67.80
13992;DHT22;7070;53.586;9.692;2023-04-03T10:40:41;8.50;67.40
13992;DHT22;7070;53.586;9.692;2023-04-03T10:43:20;8.50;66.10
13992;DHT22;7070;53.586;9.692;2023-04-03T10:45:57;8.40;65.30
13992;DHT22;7070;53.586;9.692;2023-04-03T10:48:43;8.50;65.30
13992;DHT22;7070;53.586;9.692;2023-04-03T10:51:20;8.40;65.10
13992;DHT22;7070;53.586;9.692;2023-04-03T10:53:55;8.30;65.10
13992;DHT22;7070;53.586;9.692;2023-04-03T10:56:30;8.30;65.10
13992;DHT22;7070;53.586;9.692;2023-04-03T10:59:04;8.20;65.30
13992;DHT22;7070;53.586;9.692;2023-04-03T11:01:37;8.10;64.70
13992;DHT22;7070;53.586;9.692;2023-04-03T11:04:06;8.00;65.00
13992;DHT22;7070;53.586;9.692;2023-04-03T11:06:36;8.00;65.30
13992;DHT22;7070;53.586;9.692;2023-04-03T11:09:10;8.00;65.20
13992;DHT22;7070;53.586;9.692;2023-04-03T11:11:41;7.90;65.10
13992;DHT22;7070;53.586;9.692;2023-04-03T11:14:13;7.80;65.10
13992;DHT22;7070;53.586;9.692;2023-04-03T11:16:46;7.80;65.10
13992;DHT22;7070;53.586;9.692;2023-04-03T11:19:18;7.80;65.10
13992;DHT22;7070;53.586;9.692;2023-04-03T11:21:54;7.80;65.30
13992;DHT22;7070;53.586;9.692;2023-04-03T11:24:25;7.80;65.60
13992;DHT22;7070;53.586;9.692;2023-04-03T11:26:54;7.80;65.90
13992;DHT22;7070;53.586;9.692;2023-04-03T11:29:24;7.90;66.30
13992;DHT22;7070;53.586;9.692;2023-04-03T11:32:09;8.00;66.60
13992;DHT22;7070;53.586;9.692;2023-04-03T11:34:40;8.20;67.50
13992;DHT22;7070;53.586;9.692;2023-04-03T11:37:14;8.40;68.10
13992;DHT22;7070;53.586;9.692;2023-04-03T11:39:50;8.70;68.40
13992;DHT22;7070;53.586;9.692;2023-04-03T11:42:27;8.90;68.90
13992;DHT22;7070;53.586;9.692;2023-04-03T11:45:16;9.10;67.90
13992;DHT22;7070;53.586;9.692;2023-04-03T11:47:47;9.40;66.70
13992;DHT22;7070;53.586;9.692;2023-04-03T11:53:31;9.50;65.10
13992;DHT22;7070;53.586;9.692;2023-04-03T11:56:31;9.50;64.40
13992;DHT22;7070;53.586;9.692;2023-04-03T11:59:22;9.50;63.90
13992;DHT22;7070;53.586;9.692;2023-04-03T12:01:50;9.40;64.10
13992;DHT22;7070;53.586;9.692;2023-04-03T12:04:20;9.30;63.40
13992;DHT22;7070;53.586;9.692;2023-04-03T12:10:13;9.20;63.20
13992;DHT22;7070;53.586;9.692;2023-04-03T12:12:41;9.10;63.50
13992;DHT22;7070;53.586;9.692;2023-04-03T12:15:41;9.10;63.60
13992;DHT22;7070;53.586;9.692;2023-04-03T12:21:19;9.00;62.60
13992;DHT22;7070;53.586;9.692;2023-04-03T12:24:00;9.10;62.80
13992;DHT22;7070;53.586;9.692;2023-04-03T12:26:30;9.10;63.30
13992;DHT22;7070;53.586;9.692;2023-04-03T12:28:57;9.20;63.40
13992;DHT22;7070;53.586;9.692;2023-04-03T12:31:36;9.20;63.60
13992;DHT22;7070;53.586;9.692;2023-04-03T12:34:18;9.30;64.30
13992;DHT22;7070;53.586;9.692;2023-04-03T12:37:00;9.50;63.60
13992;DHT22;7070;53.586;9.692;2023-04-03T12:39:52;9.50;62.40
13992;DHT22;7070;53.586;9.692;2023-04-03T12:42:40;9.60;61.90
13992;DHT22;7070;53.586;9.692;2023-04-03T12:45:16;9.60;62.10
13992;DHT22;7070;53.586;9.692;2023-04-03T12:47:45;9.50;62.30
13992;DHT22;7070;53.586;9.692;2023-04-03T12:50:21;9.50;62.20
13992;DHT22;7070;53.586;9.692;2023-04-03T12:52:56;9.50;62.50
13992;DHT22;7070;53.586;9.692;2023-04-03T12:55:24;9.50;62.10
13992;DHT22;7070;53.586;9.692;2023-04-03T12:57:52;9.50;62.10
13992;DHT22;7070;53.586;9.692;2023-04-03T13:00:29;9.40;62.00
13992;DHT22;7070;53.586;9.692;2023-04-03T13:02:59;9.50;62.40
13992;DHT22;7070;53.586;9.692;2023-04-03T13:05:26;9.60;62.30
13992;DHT22;7070;53.586;9.692;2023-04-03T13:07:59;9.60;61.30
13992;DHT22;7070;53.586;9.692;2023-04-03T13:10:27;9.70;62.10
13992;DHT22;7070;53.586;9.692;2023-04-03T13:12:56;9.60;61.00
13992;DHT22;7070;53.586;9.692;2023-04-03T13:15:25;9.60;61.20
13992;DHT22;7070;53.586;9.692;2023-04-03T13:17:53;9.60;60.90
13992;DHT22;7070;53.586;9.692;2023-04-03T13:20:23;9.50;61.10
13992;DHT22;7070;53.586;9.692;2023-04-03T13:22:56;9.30;60.80
13992;DHT22;7070;53.586;9.692;2023-04-03T13:25:25;9.20;61.20
13992;DHT22;7070;53.586;9.692;2023-04-03T13:27:53;9.20;61.50
13992;DHT22;7070;53.586;9.692;2023-04-03T13:30:25;9.10;61.90
13992;DHT22;7070;53.586;9.692;2023-04-03T13:32:52;9.20;62.20
13992;DHT22;7070;53.586;9.692;2023-04-03T13:35:32;9.20;62.60
13992;DHT22;7070;53.586;9.692;2023-04-03T13:38:06;9.20;63.40
13992;DHT22;7070;53.586;9.692;2023-04-03T13:40:33;9.30;63.70
13992;DHT22;7070;53.586;9.692;2023-04-03T13:43:03;9.40;64.40
13992;DHT22;7070;53.586;9.692;2023-04-03T13:45:31;9.50;65.50
13992;DHT22;7070;53.586;9.692;2023-04-03T13:48:17;9.60;65.20
13992;DHT22;7070;53.586;9.692;2023-04-03T13:50:57;9.90;65.00
13992;DHT22;7070;53.586;9.692;2023-04-03T13:53:27;10.00;62.50
13992;DHT22;7070;53.586;9.692;2023-04-03T13:55:58;10.20;62.00
13992;DHT22;7070;53.586;9.692;2023-04-03T13:58:26;10.30;62.00
13992;DHT22;7070;53.586;9.692;2023-04-03T14:00:56;10.40;61.10
13992;DHT22;7070;53.586;9.692;2023-04-03T14:03:30;10.50;61.20
13992;DHT22;7070;53.586;9.692;2023-04-03T14:05:57;10.50;60.60
13992;DHT22;7070;53.586;9.692;2023-04-03T14:08:26;10.40;59.30
13992;DHT22;7070;53.586;9.692;2023-04-03T14:10:54;10.30;59.00
13992;DHT22;7070;53.586;9.692;2023-04-03T14:13:21;10.20;58.90
13992;DHT22;7070;53.586;9.692;2023-04-03T14:15:48;9.90;59.30
13992;DHT22;7070;53.586;9.692;2023-04-03T14:18:18;9.80;58.90
13992;DHT22;7070;53.586;9.692;2023-04-03T14:20:47;9.80;59.70
13992;DHT22;7070;53.586;9.692;2023-04-03T14:23:14;9.70;59.90
13992;DHT22;7070;53.586;9.692;2023-04-03T14:25:42;9.80;60.00
13992;DHT22;7070;53.586;9.692;2023-04-03T14:28:16;9.80;60.60
13992;DHT22;7070;53.586;9.692;2023-04-03T14:30:44;9.90;61.00
13992;DHT22;7070;53.586;9.692;2023-04-03T14:33:14;10.00;59.40
13992;DHT22;7070;53.586;9.692;2023-04-03T14:35:41;10.00;59.40
13992;DHT22;7070;53.586;9.692;2023-04-03T14:38:21;10.00;59.20
13992;DHT22;7070;53.586;9.692;2023-04-03T14:40:50;9.90;60.70
13992;DHT22;7070;53.586;9.692;2023-04-03T14:43:17;9.80;60.50
13992;DHT22;7070;53.586;9.692;2023-04-03T14:45:45;9.70;60.40
13992;DHT22;7070;53.586;9.692;2023-04-03T14:48:17;9.70;60.50
13992;DHT22;7070;53.586;9.692;2023-04-03T14:50:45;9.60;60.80
13992;DHT22;7070;53.586;9.692;2023-04-03T14:53:12;9.60;61.00
13992;DHT22;7070;53.586;9.692;2023-04-03T14:55:41;9.70;61.60
13992;DHT22;7070;53.586;9.692;2023-04-03T14:58:12;9.70;62.60
13992;DHT22;7070;53.586;9.692;2023-04-03T15:00:40;9.70;61.70
13992;DHT22;7070;53.586;9.692;2023-04-03T15:03:12;9.80;60.10
13992;DHT22;7070;53.586;9.692;2023-04-03T15:05:39;9.80;60.10
13992;DHT22;7070;53.586;9.692;2023-04-03T15:08:17;9.80;59.60
13992;DHT22;7070;53.586;9.692;2023-04-03T15:10:45;9.80;60.00
13992;DHT22;7070;53.586;9.692;2023-04-03T15:13:13;9.80;60.00
13992;DHT22;7070;53.586;9.692;2023-04-03T15:15:40;9.80;60.40
13992;DHT22;7070;53.586;9.692;2023-04-03T15:18:12;9.80;60.50
13992;DHT22;7070;53.586;9.692;2023-04-03T15:20:40;9.80;60.30
13992;DHT22;7070;53.586;9.692;2023-04-03T15:23:09;9.80;61.10
13992;DHT22;7070;53.586;9.692;2023-04-03T15:25:36;9.80;61.40
13992;DHT22;7070;53.586;9.692;2023-04-03T15:28:05;9.80;61.10
13992;DHT22;7070;53.586;9.692;2023-04-03T15:30:36;9.90;60.20
13992;DHT22;7070;53.586;9.692;2023-04-03T15:33:03;9.90;60.60
13992;DHT22;7070;53.586;9.692;2023-04-03T15:35:30;10.00;59.60
13992;DHT22;7070;53.586;9.692;2023-04-03T15:37:57;10.00;59.60
13992;DHT22;7070;53.586;9.692;2023-04-03T15:40:24;10.00;59.50
13992;DHT22;7070;53.586;9.692;2023-04-03T15:42:51;9.90;60.40
13992;DHT22;7070;53.586;9.692;2023-04-03T15:45:18;9.90;60.70
13992;DHT22;7070;53.586;9.692;2023-04-03T15:47:46;9.80;60.80
13992;DHT22;7070;53.586;9.692;2023-04-03T15:50:13;9.80;61.60
13992;DHT22;7070;53.586;9.692;2023-04-03T15:52:40;9.90;62.60
13992;DHT22;7070;53.586;9.692;2023-04-03T15:55:07;9.90;63.00
13992;DHT22;7070;53.586;9.692;2023-04-03T15:57:34;10.00;61.90
13992;DHT22;7070;53.586;9.692;2023-04-03T16:00:01;10.00;61.50
13992;DHT22;7070;53.586;9.692;2023-04-03T16:02:28;10.00;61.90
13992;DHT22;7070;53.586;9.692;2023-04-03T16:04:56;10.00;60.70
13992;DHT22;7070;53.586;9.692;2023-04-03T16:07:23;9.90;61.40
13992;DHT22;7070;53.586;9.692;2023-04-03T16:09:50;9.80;61.00
13992;DHT22;7070;53.586;9.692;2023-04-03T16:12:17;9.70;60.90
13992;DHT22;7070;53.586;9.692;2023-04-03T16:14:43;9.60;61.00
13992;DHT22;7070;53.586;9.692;2023-04-03T16:17:10;9.50;61.80
13992;DHT22;7070;53.586;9.692;2023-04-03T16:19:37;9.40;61.10
13992;DHT22;7070;53.586;9.692;2023-04-03T16:22:05;9.20;61.20
13992;DHT22;7070;53.586;9.692;2023-04-03T16:24:32;9.10;61.40
13992;DHT22;7070;53.586;9.692;2023-04-03T16:27:01;9.00;61.40